Time;durP1;ratioP1;P1;durP2;ratioP2;P2;SDS_P1;SDS_P2;PMS_P1;PMS_P2;Temp;Humidity;BMP_temperature;BMP_pressure;BME280_temperature;BME280_humidity;BME280_pressure;Samples;Min_cycle;Max_cycle;Signal;HPM_P1;HPM_P2
2024/03/30 00:00:51;;;;;;;;;;;;;;;;;;5022031;28;4602;-61
2024/03/30 00:03:16;;;;;;;;;;;;;;;;;;5031631;28;5121;-61
2024/03/30 00:05:41;;;;;;;;;;;;;;;;;;5036958;28;5083;-61
2024/03/30 00:08:07;;;;;;;;;;;;;;;;;;5028386;28;1315;-60
2024/03/30 00:10:35;;;;;;;;;;;;;;;;;;5022809;28;5203;-61
2024/03/30 00:13:00;;;;;;;;;;;;;;;;;;5031678;28;4498;-61
2024/03/30 00:15:26;;;;;;;;;;;;;;;;;;5030827;28;5178;-61
2024/03/30 00:17:52;;;;;;;;;;;;;;;;;;5024747;28;4967;-61
2024/03/30 00:20:17;;;;;;;;;;;;;;;;;;5026109;28;3239;-61
2024/03/30 00:22:43;;;;;;;;;;;;;;;;;;5029819;28;5004;-61
2024/03/30 00:25:08;;;;;;;;;;;;;;;;;;5025365;28;5092;-61
2024/03/30 00:27:33;;;;;;;;;;;;;;;;;;5028146;28;4645;-61
2024/03/30 00:29:59;;;;;;;;;;;;;;;;;;5030865;28;4493;-61
2024/03/30 00:32:24;;;;;;;;;;;;;;;;;;5031074;28;1183;-61
2024/03/30 00:34:49;;;;;;;;;;;;;;;;;;5030600;28;4589;-61
2024/03/30 00:37:15;;;;;;;;;;;;;;;;;;5017720;28;5117;-61
2024/03/30 00:39:40;;;;;;;;;;;;;;;;;;5026022;28;5005;-60
2024/03/30 00:42:05;;;;;;;;;;;;;;;;;;5027771;28;4615;-61
2024/03/30 00:44:33;;;;;;;;;;;;;;;;;;5024122;28;1101;-61
2024/03/30 00:46:59;;;;;;;;;;;;;;;;;;5021931;28;4822;-61
2024/03/30 00:49:24;;;;;;;;;;;;;;;;;;5025424;28;5221;-61
2024/03/30 00:51:49;;;;;;;;;;;;;;;;;;5030120;28;4569;-61
2024/03/30 00:54:15;;;;;;;;;;;;;;;;;;5029927;28;5088;-61
2024/03/30 00:56:41;;;;;;;;;;;;;;;;;;5026806;28;4809;-61
2024/03/30 00:59:06;;;;;;;;;;;;;;;;;;5029150;28;1991;-62
2024/03/30 01:01:31;;;;;;;;;;;;;;;;;;5024742;28;5004;-61
2024/03/30 01:03:57;;;;;;;;;;;;;;;;;;5025643;28;4560;-61
2024/03/30 01:06:24;;;;;;;;;;;;;;;;;;5026770;28;4963;-61
2024/03/30 01:08:49;;;;;;;;;;;;;;;;;;5026218;28;4520;-61
2024/03/30 01:11:15;;;;;;;;;;;;;;;;;;5026435;28;3104;-61
2024/03/30 01:13:40;;;;;;;;;;;;;;;;;;5024970;28;4863;-61
2024/03/30 01:16:09;;;;;;;;;;;;;;;;;;5027415;28;4699;-61
2024/03/30 01:18:34;;;;;;;;;;;;;;;;;;5024254;28;4687;-61
2024/03/30 01:21:00;;;;;;;;;;;;;;;;;;5018569;28;5174;-62
2024/03/30 01:23:25;;;;;;;;;;;;;;;;;;5025984;28;1184;-61
2024/03/30 01:25:51;;;;;;;;;;;;;;;;;;5020666;28;5225;-61
2024/03/30 01:28:16;;;;;;;;;;;;;;;;;;5028484;28;5608;-61
2024/03/30 01:30:42;;;;;;;;;;;;;;;;;;5028630;28;5055;-61
2024/03/30 01:33:08;;;;;;;;;;;;;;;;;;5027261;28;5103;-61
2024/03/30 01:35:33;;;;;;;;;;;;;;;;;;5021090;28;3262;-61
2024/03/30 01:37:59;;;;;;;;;;;;;;;;;;5026753;28;4810;-62
2024/03/30 01:40:24;;;;;;;;;;;;;;;;;;5014482;28;5113;-61
2024/03/30 01:42:49;;;;;;;;;;;;;;;;;;5024054;28;4708;-61
2024/03/30 01:45:15;;;;;;;;;;;;;;;;;;5025804;28;5038;-61
2024/03/30 01:47:40;;;;;;;;;;;;;;;;;;5023341;28;5097;-61
2024/03/30 01:50:06;;;;;;;;;;;;;;;;;;5024431;28;3368;-61
2024/03/30 01:52:31;;;;;;;;;;;;;;;;;;5034229;28;5072;-61
2024/03/30 01:54:56;;;;;;;;;;;;;;;;;;5025553;28;4680;-61
2024/03/30 01:57:22;;;;;;;;;;;;;;;;;;5025567;28;4679;-61
2024/03/30 01:59:47;;;;;;;;;;;;;;;;;;4971822;28;1533806;-61
2024/03/30 02:02:13;;;;;;;;;;;;;;;;;;5027100;28;3435;-61
2024/03/30 02:04:38;;;;;;;;;;;;;;;;;;5038891;28;5021;-61
2024/03/30 02:07:04;;;;;;;;;;;;;;;;;;5021770;28;4999;-61
2024/03/30 02:09:29;;;;;;;;;;;;;;;;;;5012912;28;5099;-61
2024/03/30 02:11:54;;;;;;;;;;;;;;;;;;5019623;28;4625;-61
2024/03/30 02:14:20;;;;;;;;;;;;;;;;;;5019283;28;3435;-61
2024/03/30 02:16:45;;;;;;;;;;;;;;;;;;5027025;28;5321;-61
2024/03/30 02:19:10;;;;;;;;;;;;;;;;;;5013537;28;5130;-61
2024/03/30 02:21:36;;;;;;;;;;;;;;;;;;5026527;28;4980;-61
2024/03/30 02:24:01;;;;;;;;;;;;;;;;;;5024797;28;4725;-61
2024/03/30 02:26:26;;;;;;;;;;;;;;;;;;5025573;28;3254;-61
2024/03/30 02:28:52;;;;;;;;;;;;;;;;;;5027705;28;4967;-61
2024/03/30 02:31:18;;;;;;;;;;;;;;;;;;5028917;28;4865;-61
2024/03/30 02:33:43;;;;;;;;;;;;;;;;;;5039824;28;4669;-61
2024/03/30 02:36:08;;;;;;;;;;;;;;;;;;5033549;28;5099;-62
2024/03/30 02:38:34;;;;;;;;;;;;;;;;;;5026137;28;1094;-61
2024/03/30 02:40:59;;;;;;;;;;;;;;;;;;5017574;28;4497;-61
2024/03/30 02:43:24;;;;;;;;;;;;;;;;;;5022989;28;4540;-61
2024/03/30 02:45:50;;;;;;;;;;;;;;;;;;5028709;28;5034;-61
2024/03/30 02:48:15;;;;;;;;;;;;;;;;;;5015685;28;4711;-61
2024/03/30 02:50:41;;;;;;;;;;;;;;;;;;5021853;28;5058;-61
2024/03/30 02:53:06;;;;;;;;;;;;;;;;;;5021149;28;1081;-61
2024/03/30 02:55:31;;;;;;;;;;;;;;;;;;5024985;28;5080;-61
2024/03/30 02:57:57;;;;;;;;;;;;;;;;;;5028296;28;4504;-61
2024/03/30 03:00:22;;;;;;;;;;;;;;;;;;5027678;28;5071;-61
2024/03/30 03:02:47;;;;;;;;;;;;;;;;;;5026459;28;4462;-62
2024/03/30 03:05:13;;;;;;;;;;;;;;;;;;5022932;28;3532;-61
2024/03/30 03:07:38;;;;;;;;;;;;;;;;;;5024394;28;5067;-61
2024/03/30 03:10:04;;;;;;;;;;;;;;;;;;5013247;28;4934;-61
2024/03/30 03:12:30;;;;;;;;;;;;;;;;;;5026884;28;5100;-61
2024/03/30 03:14:56;;;;;;;;;;;;;;;;;;5021475;28;4769;-61
2024/03/30 03:17:21;;;;;;;;;;;;;;;;;;5022635;28;1374;-61
2024/03/30 03:19:46;;;;;;;;;;;;;;;;;;5027827;28;5062;-61
2024/03/30 03:22:12;;;;;;;;;;;;;;;;;;5026136;28;4990;-61
2024/03/30 03:24:38;;;;;;;;;;;;;;;;;;5019644;28;5232;-61
2024/03/30 03:27:03;;;;;;;;;;;;;;;;;;5026311;28;4591;-61
2024/03/30 03:29:29;;;;;;;;;;;;;;;;;;5035356;28;1104;-61
2024/03/30 03:31:54;;;;;;;;;;;;;;;;;;5026418;28;4918;-61
2024/03/30 03:34:19;;;;;;;;;;;;;;;;;;5015584;28;4943;-61
2024/03/30 03:36:45;;;;;;;;;;;;;;;;;;5027712;28;4985;-61
2024/03/30 03:39:10;;;;;;;;;;;;;;;;;;5027400;28;4509;-61
2024/03/30 03:41:35;;;;;;;;;;;;;;;;;;5024560;28;3189;-61
2024/03/30 03:44:01;;;;;;;;;;;;;;;;;;5026999;28;5018;-61
2024/03/30 03:46:26;;;;;;;;;;;;;;;;;;5027378;28;4655;-61
2024/03/30 03:48:52;;;;;;;;;;;;;;;;;;5027412;28;5137;-61
2024/03/30 03:51:17;;;;;;;;;;;;;;;;;;5018024;28;4551;-61
2024/03/30 03:53:42;;;;;;;;;;;;;;;;;;5020282;28;5231;-61
2024/03/30 03:56:08;;;;;;;;;;;;;;;;;;5021864;28;3412;-62
2024/03/30 03:58:33;;;;;;;;;;;;;;;;;;5023191;28;5080;-61
2024/03/30 04:01:07;;;;;;;;;;;;;;;;;;5026604;28;4691;-61
2024/03/30 04:03:33;;;;;;;;;;;;;;;;;;5026062;28;5138;-61
2024/03/30 04:06:07;;;;;;;;;;;;;;;;;;5008287;28;5071;-62
2024/03/30 04:08:32;;;;;;;;;;;;;;;;;;5023423;28;3606;-61
2024/03/30 04:11:00;;;;;;;;;;;;;;;;;;5020245;28;4607;-61
2024/03/30 04:13:26;;;;;;;;;;;;;;;;;;5024479;28;5051;-61
2024/03/30 04:15:51;;;;;;;;;;;;;;;;;;5027254;28;5063;-61
2024/03/30 04:18:16;;;;;;;;;;;;;;;;;;5014357;28;4513;-61
2024/03/30 04:20:42;;;;;;;;;;;;;;;;;;5023521;28;4731;-61
2024/03/30 04:23:07;;;;;;;;;;;;;;;;;;5036247;28;3164;-61
2024/03/30 04:25:32;;;;;;;;;;;;;;;;;;5012924;28;5055;-61
2024/03/30 04:27:58;;;;;;;;;;;;;;;;;;5021169;28;4517;-61
2024/03/30 04:30:23;;;;;;;;;;;;;;;;;;5026924;28;4954;-61
2024/03/30 04:32:48;;;;;;;;;;;;;;;;;;5015609;28;5107;-61
2024/03/30 04:35:14;;;;;;;;;;;;;;;;;;5021420;28;1169;-61
2024/03/30 04:37:39;;;;;;;;;;;;;;;;;;5025589;28;5243;-61
2024/03/30 04:40:05;;;;;;;;;;;;;;;;;;5024729;28;5160;-61
2024/03/30 04:42:30;;;;;;;;;;;;;;;;;;5020796;28;5194;-61
2024/03/30 04:44:56;;;;;;;;;;;;;;;;;;5023986;28;4980;-61
2024/03/30 04:47:21;;;;;;;;;;;;;;;;;;5031106;28;1163;-61
2024/03/30 04:49:46;;;;;;;;;;;;;;;;;;5028859;28;5529;-61
2024/03/30 04:52:12;;;;;;;;;;;;;;;;;;5023655;28;4520;-61
2024/03/30 04:54:37;;;;;;;;;;;;;;;;;;5027174;28;5011;-61
2024/03/30 04:57:02;;;;;;;;;;;;;;;;;;5022261;28;5059;-61
2024/03/30 04:59:28;;;;;;;;;;;;;;;;;;5026075;28;1914;-62
2024/03/30 05:01:54;;;;;;;;;;;;;;;;;;5018971;28;4657;-61
2024/03/30 05:04:20;;;;;;;;;;;;;;;;;;5040802;28;4593;-62
2024/03/30 05:06:45;;;;;;;;;;;;;;;;;;5026506;28;5051;-61
2024/03/30 05:09:10;;;;;;;;;;;;;;;;;;5023619;28;4955;-62
2024/03/30 05:11:36;;;;;;;;;;;;;;;;;;5025466;28;3408;-62
2024/03/30 05:14:01;;;;;;;;;;;;;;;;;;5024916;28;5377;-61
2024/03/30 05:16:26;;;;;;;;;;;;;;;;;;5029520;28;5167;-62
2024/03/30 05:18:52;;;;;;;;;;;;;;;;;;5028575;28;5095;-62
2024/03/30 05:21:18;;;;;;;;;;;;;;;;;;5023048;28;4696;-61
2024/03/30 05:23:45;;;;;;;;;;;;;;;;;;5024746;28;4516;-62
2024/03/30 05:26:10;;;;;;;;;;;;;;;;;;5020747;28;3194;-62
2024/03/30 05:28:36;;;;;;;;;;;;;;;;;;5021902;28;4919;-62
2024/03/30 05:31:05;;;;;;;;;;;;;;;;;;5027697;28;4460;-61
2024/03/30 05:33:31;;;;;;;;;;;;;;;;;;5029846;28;4954;-61
2024/03/30 05:35:56;;;;;;;;;;;;;;;;;;5027829;28;4621;-62
2024/03/30 05:38:22;;;;;;;;;;;;;;;;;;5018413;28;3329;-61
2024/03/30 05:40:47;;;;;;;;;;;;;;;;;;5027302;28;4992;-62
2024/03/30 05:43:13;;;;;;;;;;;;;;;;;;5034107;28;5109;-61
2024/03/30 05:45:41;;;;;;;;;;;;;;;;;;5026466;28;4508;-62
2024/03/30 05:48:07;;;;;;;;;;;;;;;;;;5025905;28;4644;-62
2024/03/30 05:50:33;;;;;;;;;;;;;;;;;;5024925;28;1421;-62
2024/03/30 05:52:58;;;;;;;;;;;;;;;;;;5025140;28;5218;-62
2024/03/30 05:55:23;;;;;;;;;;;;;;;;;;5024987;28;5156;-62
2024/03/30 05:57:50;;;;;;;;;;;;;;;;;;5022500;28;5457;-62
2024/03/30 06:00:15;;;;;;;;;;;;;;;;;;5028675;28;5068;-62
2024/03/30 06:02:41;;;;;;;;;;;;;;;;;;5017384;28;5005;-62
2024/03/30 06:05:07;;;;;;;;;;;;;;;;;;5015276;28;3417;-62
2024/03/30 06:07:32;;;;;;;;;;;;;;;;;;5024009;28;5070;-61
2024/03/30 06:09:57;;;;;;;;;;;;;;;;;;5021349;28;5302;-62
2024/03/30 06:12:23;;;;;;;;;;;;;;;;;;5026206;28;5700;-62
2024/03/30 06:14:48;;;;;;;;;;;;;;;;;;5031926;28;4996;-61
2024/03/30 06:17:14;;;;;;;;;;;;;;;;;;5025446;28;3416;-62
2024/03/30 06:19:42;;;;;;;;;;;;;;;;;;5020594;28;4874;-62
2024/03/30 06:22:07;;;;;;;;;;;;;;;;;;5035851;28;5173;-62
2024/03/30 06:24:34;;;;;;;;;;;;;;;;;;5021265;28;4541;-63
2024/03/30 06:26:59;;;;;;;;;;;;;;;;;;5028325;28;5124;-62
2024/03/30 06:29:26;;;;;;;;;;;;;;;;;;5023744;28;3362;-62
2024/03/30 06:31:52;;;;;;;;;;;;;;;;;;5021513;28;5179;-63
2024/03/30 06:34:17;;;;;;;;;;;;;;;;;;5027946;28;4486;-62
2024/03/30 06:36:42;;;;;;;;;;;;;;;;;;5025936;28;4504;-62
2024/03/30 06:39:08;;;;;;;;;;;;;;;;;;5016890;28;4608;-62
2024/03/30 06:44:17;;;;;;;;;;;;;;;;;;5022025;28;4578;-62
2024/03/30 06:46:42;;;;;;;;;;;;;;;;;;5023699;28;5003;-62
2024/03/30 06:49:08;;;;;;;;;;;;;;;;;;5016338;28;5115;-62
2024/03/30 06:51:33;;;;;;;;;;;;;;;;;;5025112;28;4525;-62
2024/03/30 06:53:58;;;;;;;;;;;;;;;;;;5027882;28;4510;-62
2024/03/30 06:56:24;;;;;;;;;;;;;;;;;;5026871;28;1046;-62
2024/03/30 06:58:49;;;;;;;;;;;;;;;;;;5022130;28;5103;-62
2024/03/30 07:01:15;;;;;;;;;;;;;;;;;;5029033;28;5092;-62
2024/03/30 07:03:40;;;;;;;;;;;;;;;;;;5023924;28;5311;-62
2024/03/30 07:06:05;;;;;;;;;;;;;;;;;;5022460;28;4679;-62
2024/03/30 07:08:31;;;;;;;;;;;;;;;;;;5029435;28;3259;-62
2024/03/30 07:10:56;;;;;;;;;;;;;;;;;;5018852;28;4643;-63
2024/03/30 07:13:21;;;;;;;;;;;;;;;;;;5016505;28;5188;-62
2024/03/30 07:15:47;;;;;;;;;;;;;;;;;;5026269;28;4908;-62
2024/03/30 07:18:13;;;;;;;;;;;;;;;;;;5016013;28;4749;-63
2024/03/30 07:20:38;;;;;;;;;;;;;;;;;;5020851;28;3711;-62
2024/03/30 07:23:03;;;;;;;;;;;;;;;;;;5020968;28;4821;-61
2024/03/30 07:25:29;;;;;;;;;;;;;;;;;;5021129;28;4747;-65
2024/03/30 07:27:54;;;;;;;;;;;;;;;;;;5022624;28;5031;-62
2024/03/30 07:30:20;;;;;;;;;;;;;;;;;;5025358;28;4594;-60
2024/03/30 07:32:45;;;;;;;;;;;;;;;;;;5025741;28;4537;-59
2024/03/30 07:35:10;;;;;;;;;;;;;;;;;;5023044;28;3429;-60
2024/03/30 07:37:37;;;;;;;;;;;;;;;;;;5025323;28;4935;-62
2024/03/30 07:40:02;;;;;;;;;;;;;;;;;;5018464;28;5408;-60
2024/03/30 07:42:28;;;;;;;;;;;;;;;;;;5014798;28;5147;-59
2024/03/30 07:44:53;;;;;;;;;;;;;;;;;;5034711;28;4601;-61
2024/03/30 07:47:18;;;;;;;;;;;;;;;;;;5036545;28;3877;-60
2024/03/30 07:49:44;;;;;;;;;;;;;;;;;;5023874;28;4555;-60
2024/03/30 07:52:10;;;;;;;;;;;;;;;;;;5025301;28;4699;-60
2024/03/30 07:54:36;;;;;;;;;;;;;;;;;;5027255;28;6540;-62
2024/03/30 07:57:01;;;;;;;;;;;;;;;;;;5023249;28;5110;-62
2024/03/30 07:59:26;;;;;;;;;;;;;;;;;;5021156;28;3328;-61
2024/03/30 08:01:52;;;;;;;;;;;;;;;;;;5018496;28;4491;-59
2024/03/30 08:04:17;;;;;;;;;;;;;;;;;;5039626;28;4512;-60
2024/03/30 08:06:43;;;;;;;;;;;;;;;;;;5023595;28;5509;-58
2024/03/30 08:09:09;;;;;;;;;;;;;;;;;;5020476;28;5173;-58
2024/03/30 08:11:34;;;;;;;;;;;;;;;;;;5025011;28;3271;-59
2024/03/30 08:13:59;;;;;;;;;;;;;;;;;;5027471;28;5045;-58
2024/03/30 08:16:25;;;;;;;;;;;;;;;;;;5019149;28;4678;-59
2024/03/30 08:18:51;;;;;;;;;;;;;;;;;;5021309;28;5321;-60
2024/03/30 08:21:16;;;;;;;;;;;;;;;;;;5028486;28;5204;-59
2024/03/30 08:23:42;;;;;;;;;;;;;;;;;;5028725;28;4898;-59
2024/03/30 08:26:07;;;;;;;;;;;;;;;;;;5029294;28;3609;-58
2024/03/30 08:28:32;;;;;;;;;;;;;;;;;;5023635;28;4906;-57
2024/03/30 08:30:58;;;;;;;;;;;;;;;;;;5028522;28;5016;-57
2024/03/30 08:33:23;;;;;;;;;;;;;;;;;;5024035;28;4937;-63
2024/03/30 08:35:52;;;;;;;;;;;;;;;;;;5020222;28;4664;-59
2024/03/30 08:38:18;;;;;;;;;;;;;;;;;;5025176;28;2747;-60
2024/03/30 08:40:43;;;;;;;;;;;;;;;;;;5024149;28;4992;-59
2024/03/30 08:43:09;;;;;;;;;;;;;;;;;;5027746;28;5068;-58
2024/03/30 08:45:34;;;;;;;;;;;;;;;;;;5026973;28;5124;-57
2024/03/30 08:47:59;;;;;;;;;;;;;;;;;;5027375;28;4615;-61
2024/03/30 08:50:25;;;;;;;;;;;;;;;;;;5025347;28;1109;-58
2024/03/30 08:52:50;;;;;;;;;;;;;;;;;;5025111;28;4696;-62
2024/03/30 08:55:15;;;;;;;;;;;;;;;;;;5025259;28;4758;-58
2024/03/30 08:57:41;;;;;;;;;;;;;;;;;;5025801;28;4714;-58
2024/03/30 09:00:08;;;;;;;;;;;;;;;;;;5027650;28;4760;-59
2024/03/30 09:02:36;;;;;;;;;;;;;;;;;;5029807;28;3670;-60
2024/03/30 09:05:01;;;;;;;;;;;;;;;;;;5021483;28;4918;-62
2024/03/30 09:07:26;;;;;;;;;;;;;;;;;;5024475;28;4981;-69
2024/03/30 09:09:52;;;;;;;;;;;;;;;;;;5024442;28;4915;-67
2024/03/30 09:12:17;;;;;;;;;;;;;;;;;;5030194;28;5148;-60
2024/03/30 09:14:42;;;;;;;;;;;;;;;;;;5022722;28;5005;-59
2024/03/30 09:17:08;;;;;;;;;;;;;;;;;;5028050;28;3876;-61
2024/03/30 09:19:33;;;;;;;;;;;;;;;;;;5027276;28;5075;-63
2024/03/30 09:21:58;;;;;;;;;;;;;;;;;;5023080;28;4488;-61
2024/03/30 09:24:24;;;;;;;;;;;;;;;;;;5021137;28;5643;-70
2024/03/30 09:26:49;;;;;;;;;;;;;;;;;;5024699;28;5029;-63
2024/03/30 09:29:15;;;;;;;;;;;;;;;;;;5017873;28;3644;-61
2024/03/30 09:31:40;;;;;;;;;;;;;;;;;;5023278;28;5140;-58
2024/03/30 09:34:06;;;;;;;;;;;;;;;;;;5018864;28;4926;-58
2024/03/30 09:36:32;;;;;;;;;;;;;;;;;;5028684;28;4686;-58
2024/03/30 09:38:58;;;;;;;;;;;;;;;;;;5022113;28;4507;-58
2024/03/30 09:41:23;;;;;;;;;;;;;;;;;;5020155;28;3713;-58
2024/03/30 09:43:49;;;;;;;;;;;;;;;;;;5019907;28;5072;-58
2024/03/30 09:46:15;;;;;;;;;;;;;;;;;;5027067;28;4472;-62
2024/03/30 09:48:41;;;;;;;;;;;;;;;;;;5030002;28;4725;-57
2024/03/30 09:51:07;;;;;;;;;;;;;;;;;;5028129;28;4856;-60
2024/03/30 09:53:32;;;;;;;;;;;;;;;;;;5026293;28;3737;-60
2024/03/30 09:55:58;;;;;;;;;;;;;;;;;;5025174;28;4629;-59
2024/03/30 09:58:23;;;;;;;;;;;;;;;;;;5027140;28;4493;-59
2024/03/30 10:00:49;;;;;;;;;;;;;;;;;;5024513;28;5243;-58
2024/03/30 10:03:14;;;;;;;;;;;;;;;;;;5008736;28;4535;-60
2024/03/30 10:05:40;;;;;;;;;;;;;;;;;;5025215;28;5004;-58
2024/03/30 10:08:06;;;;;;;;;;;;;;;;;;5036081;28;3100;-62
2024/03/30 10:10:32;;;;;;;;;;;;;;;;;;5018482;28;4541;-57
2024/03/30 10:13:00;;;;;;;;;;;;;;;;;;5021010;28;5082;-58
2024/03/30 10:15:45;;;;;;;;;;;;;;;;;;5035791;28;4662;-59
2024/03/30 10:18:11;;;;;;;;;;;;;;;;;;5022931;28;5286;-60
2024/03/30 10:20:36;;;;;;;;;;;;;;;;;;5018794;28;3447;-63
2024/03/30 10:23:01;;;;;;;;;;;;;;;;;;5014173;28;4437;-60
2024/03/30 10:25:27;;;;;;;;;;;;;;;;;;5031024;28;4523;-67
2024/03/30 10:27:52;;;;;;;;;;;;;;;;;;5024250;28;5183;-59
2024/03/30 10:30:17;;;;;;;;;;;;;;;;;;5025729;28;5017;-58
2024/03/30 10:32:43;;;;;;;;;;;;;;;;;;5030429;28;4554;-59
2024/03/30 10:35:09;;;;;;;;;;;;;;;;;;5023827;28;3334;-67
2024/03/30 10:37:34;;;;;;;;;;;;;;;;;;5022546;28;4696;-62
2024/03/30 10:40:09;;;;;;;;;;;;;;;;;;5028703;28;5138;-60
2024/03/30 10:42:34;;;;;;;;;;;;;;;;;;5024160;28;4578;-60
2024/03/30 10:45:02;;;;;;;;;;;;;;;;;;5024011;28;5194;-61
2024/03/30 10:47:31;;;;;;;;;;;;;;;;;;5028543;28;3345;-63
2024/03/30 10:49:56;;;;;;;;;;;;;;;;;;5019690;28;4776;-61
2024/03/30 10:52:22;;;;;;;;;;;;;;;;;;5025678;28;4549;-59
2024/03/30 10:54:47;;;;;;;;;;;;;;;;;;5021374;28;5121;-59
2024/03/30 10:57:13;;;;;;;;;;;;;;;;;;5025281;28;4505;-58
2024/03/30 10:59:41;;;;;;;;;;;;;;;;;;5028012;28;1907;-59
2024/03/30 11:02:17;;;;;;;;;;;;;;;;;;5020523;28;6132;-59
2024/03/30 11:04:43;;;;;;;;;;;;;;;;;;5025830;28;5206;-59
2024/03/30 11:07:09;;;;;;;;;;;;;;;;;;5022647;28;4639;-58
2024/03/30 11:09:37;;;;;;;;;;;;;;;;;;5022823;28;5123;-63
2024/03/30 11:12:02;;;;;;;;;;;;;;;;;;5034620;28;5235;-58
2024/03/30 11:14:27;;;;;;;;;;;;;;;;;;5038874;28;3322;-58
2024/03/30 11:16:53;;;;;;;;;;;;;;;;;;5023575;28;5030;-60
2024/03/30 11:19:21;;;;;;;;;;;;;;;;;;5026170;28;5183;-60
2024/03/30 11:22:05;;;;;;;;;;;;;;;;;;5026394;28;4573;-62
2024/03/30 11:24:30;;;;;;;;;;;;;;;;;;5014867;28;4914;-59
2024/03/30 11:26:58;;;;;;;;;;;;;;;;;;5021771;28;5046;-62
2024/03/30 11:29:32;;;;;;;;;;;;;;;;;;5025675;28;1043;-59
2024/03/30 11:32:07;;;;;;;;;;;;;;;;;;5035244;28;4637;-59
2024/03/30 11:34:39;;;;;;;;;;;;;;;;;;5026691;28;5089;-60
2024/03/30 11:37:04;;;;;;;;;;;;;;;;;;5024538;28;4570;-59
2024/03/30 11:39:32;;;;;;;;;;;;;;;;;;5024126;28;4634;-61
2024/03/30 11:42:10;;;;;;;;;;;;;;;;;;5019994;28;5185;-59
2024/03/30 11:44:35;;;;;;;;;;;;;;;;;;5036292;28;3208;-60
2024/03/30 11:47:01;;;;;;;;;;;;;;;;;;5016641;28;4928;-62
2024/03/30 11:49:26;;;;;;;;;;;;;;;;;;5022048;28;5095;-59
2024/03/30 11:51:52;;;;;;;;;;;;;;;;;;5022872;28;4701;-59
2024/03/30 11:54:26;;;;;;;;;;;;;;;;;;5023004;28;5207;-61
2024/03/30 11:56:54;;;;;;;;;;;;;;;;;;5027216;28;5095;-58
2024/03/30 11:59:19;;;;;;;;;;;;;;;;;;5019256;28;1168;-58
2024/03/30 12:01:45;;;;;;;;;;;;;;;;;;5022435;28;4992;-62
2024/03/30 12:04:10;;;;;;;;;;;;;;;;;;5027742;28;5024;-58
2024/03/30 12:06:36;;;;;;;;;;;;;;;;;;5010878;28;5627;-60
2024/03/30 12:09:01;;;;;;;;;;;;;;;;;;5041229;28;4461;-61
2024/03/30 12:11:27;;;;;;;;;;;;;;;;;;5027597;28;3506;-64
2024/03/30 12:13:52;;;;;;;;;;;;;;;;;;5024097;28;5120;-59
2024/03/30 12:16:17;;;;;;;;;;;;;;;;;;5025964;28;5091;-59
2024/03/30 12:18:43;;;;;;;;;;;;;;;;;;5038829;28;5112;-59
2024/03/30 12:21:08;;;;;;;;;;;;;;;;;;5022105;28;5874;-62
2024/03/30 12:23:34;;;;;;;;;;;;;;;;;;5025770;28;3245;-59
2024/03/30 12:25:59;;;;;;;;;;;;;;;;;;5013213;28;4589;-60
2024/03/30 12:28:25;;;;;;;;;;;;;;;;;;5032112;28;5044;-60
2024/03/30 12:30:51;;;;;;;;;;;;;;;;;;5041048;28;5058;-59
2024/03/30 12:33:16;;;;;;;;;;;;;;;;;;5024832;28;5026;-60
2024/03/30 12:35:42;;;;;;;;;;;;;;;;;;5030358;28;5347;-59
2024/03/30 12:38:10;;;;;;;;;;;;;;;;;;5027018;28;1180;-59
2024/03/30 12:40:36;;;;;;;;;;;;;;;;;;5027414;28;5067;-59
2024/03/30 12:43:02;;;;;;;;;;;;;;;;;;5025608;28;4754;-61
2024/03/30 12:45:27;;;;;;;;;;;;;;;;;;5030472;28;5074;-60
2024/03/30 12:47:54;;;;;;;;;;;;;;;;;;5028027;28;5152;-59
2024/03/30 12:50:20;;;;;;;;;;;;;;;;;;5019434;28;2207;-58
2024/03/30 12:52:46;;;;;;;;;;;;;;;;;;5016641;28;4735;-60
2024/03/30 12:55:12;;;;;;;;;;;;;;;;;;5026219;28;5107;-59
2024/03/30 12:57:38;;;;;;;;;;;;;;;;;;5020228;28;5209;-59
2024/03/30 13:00:11;;;;;;;;;;;;;;;;;;5043633;28;5165;-60
2024/03/30 13:02:36;;;;;;;;;;;;;;;;;;5022838;28;3376;-64
2024/03/30 13:05:08;;;;;;;;;;;;;;;;;;5029263;28;5023;-59
2024/03/30 13:07:33;;;;;;;;;;;;;;;;;;5026131;28;5410;-59
2024/03/30 13:10:11;;;;;;;;;;;;;;;;;;5022368;28;5014;-60
2024/03/30 13:12:36;;;;;;;;;;;;;;;;;;5018568;28;4793;-59
2024/03/30 13:15:02;;;;;;;;;;;;;;;;;;5029972;28;4515;-59
2024/03/30 13:17:27;;;;;;;;;;;;;;;;;;5029065;28;1175;-61
2024/03/30 13:19:53;;;;;;;;;;;;;;;;;;5026147;28;4970;-61
2024/03/30 13:22:18;;;;;;;;;;;;;;;;;;5024281;28;5097;-60
2024/03/30 13:24:44;;;;;;;;;;;;;;;;;;5035415;28;5253;-60
2024/03/30 13:27:09;;;;;;;;;;;;;;;;;;5020081;28;4698;-59
2024/03/30 13:29:39;;;;;;;;;;;;;;;;;;5030490;28;1101;-61
2024/03/30 13:32:04;;;;;;;;;;;;;;;;;;5029563;28;4975;-60
2024/03/30 13:34:30;;;;;;;;;;;;;;;;;;5028416;28;5065;-60
2024/03/30 13:36:55;;;;;;;;;;;;;;;;;;5027169;28;5418;-59
2024/03/30 13:39:20;;;;;;;;;;;;;;;;;;5032827;28;5445;-59
2024/03/30 13:41:46;;;;;;;;;;;;;;;;;;5025150;28;4752;-61
2024/03/30 13:44:11;;;;;;;;;;;;;;;;;;5020054;28;3285;-59
2024/03/30 13:46:36;;;;;;;;;;;;;;;;;;5029652;28;4899;-59
2024/03/30 13:49:03;;;;;;;;;;;;;;;;;;5020804;28;4589;-60
2024/03/30 13:51:29;;;;;;;;;;;;;;;;;;5025703;28;5031;-61
2024/03/30 13:53:54;;;;;;;;;;;;;;;;;;5028064;28;5142;-61
2024/03/30 13:56:19;;;;;;;;;;;;;;;;;;5027765;28;2665;-59
2024/03/30 13:58:45;;;;;;;;;;;;;;;;;;5026025;28;4664;-60
2024/03/30 14:01:10;;;;;;;;;;;;;;;;;;5023557;28;4939;-60
2024/03/30 14:03:36;;;;;;;;;;;;;;;;;;5029288;28;5069;-62
2024/03/30 14:06:02;;;;;;;;;;;;;;;;;;5028086;28;4741;-60
2024/03/30 14:08:27;;;;;;;;;;;;;;;;;;5021390;28;3314;-60
2024/03/30 14:10:52;;;;;;;;;;;;;;;;;;5021523;28;4546;-61
2024/03/30 14:13:18;;;;;;;;;;;;;;;;;;5027973;28;4500;-60
2024/03/30 14:15:43;;;;;;;;;;;;;;;;;;5027773;28;5050;-61
2024/03/30 14:18:08;;;;;;;;;;;;;;;;;;5027302;28;5329;-60
2024/03/30 14:20:34;;;;;;;;;;;;;;;;;;5024598;28;1983;-61
2024/03/30 14:22:59;;;;;;;;;;;;;;;;;;5024601;28;4506;-64
2024/03/30 14:25:27;;;;;;;;;;;;;;;;;;5021756;28;5564;-61
2024/03/30 14:27:52;;;;;;;;;;;;;;;;;;5025337;28;4523;-61
2024/03/30 14:30:17;;;;;;;;;;;;;;;;;;5020806;28;5043;-62
2024/03/30 14:32:43;;;;;;;;;;;;;;;;;;5022109;28;4563;-58
2024/03/30 14:35:08;;;;;;;;;;;;;;;;;;5018692;28;3865;-64
2024/03/30 14:37:33;;;;;;;;;;;;;;;;;;5020843;28;4793;-62
2024/03/30 14:39:59;;;;;;;;;;;;;;;;;;5031016;28;4545;-63
2024/03/30 14:42:24;;;;;;;;;;;;;;;;;;5029332;28;5193;-61
2024/03/30 14:44:52;;;;;;;;;;;;;;;;;;5028694;28;5812;-63
2024/03/30 14:47:18;;;;;;;;;;;;;;;;;;5024858;28;3637;-62
2024/03/30 14:49:43;;;;;;;;;;;;;;;;;;5021358;28;4668;-64
2024/03/30 14:52:08;;;;;;;;;;;;;;;;;;5023864;28;5079;-63
2024/03/30 14:54:34;;;;;;;;;;;;;;;;;;5021948;28;5052;-66
2024/03/30 14:56:59;;;;;;;;;;;;;;;;;;5023322;28;5024;-67
2024/03/30 14:59:24;;;;;;;;;;;;;;;;;;5028921;28;3601;-68
2024/03/30 15:01:50;;;;;;;;;;;;;;;;;;5022808;28;4696;-70
2024/03/30 15:04:16;;;;;;;;;;;;;;;;;;5014971;28;4985;-68
2024/03/30 15:06:41;;;;;;;;;;;;;;;;;;5020992;28;5141;-65
2024/03/30 15:09:06;;;;;;;;;;;;;;;;;;5018384;28;4686;-73
2024/03/30 15:11:35;;;;;;;;;;;;;;;;;;5029892;28;3573;-72
2024/03/30 15:14:00;;;;;;;;;;;;;;;;;;5027189;28;5023;-71
2024/03/30 15:16:26;;;;;;;;;;;;;;;;;;5009865;28;4939;-79
2024/03/30 15:18:51;;;;;;;;;;;;;;;;;;4998232;28;4628;-74
2024/03/30 15:21:16;;;;;;;;;;;;;;;;;;4989564;28;5135;-68
2024/03/30 15:23:43;;;;;;;;;;;;;;;;;;4993456;28;5065;-79
2024/03/30 15:26:11;;;;;;;;;;;;;;;;;;5000511;28;3835;-73
2024/03/30 15:28:37;;;;;;;;;;;;;;;;;;4994931;28;5060;-75
2024/03/30 15:33:47;;;;;;;;;;;;;;;;;;4994754;28;4743;-70
2024/03/30 15:36:12;;;;;;;;;;;;;;;;;;4995507;28;5125;-71
2024/03/30 15:38:37;;;;;;;;;;;;;;;;;;4993957;28;3588;-62
2024/03/30 15:41:03;;;;;;;;;;;;;;;;;;4998737;28;4996;-62
2024/03/30 15:43:28;;;;;;;;;;;;;;;;;;4998862;28;4701;-63
2024/03/30 15:45:54;;;;;;;;;;;;;;;;;;4991361;28;4522;-61
2024/03/30 15:48:19;;;;;;;;;;;;;;;;;;4992687;28;5055;-63
2024/03/30 15:50:45;;;;;;;;;;;;;;;;;;4994772;28;5091;-66
2024/03/30 15:53:10;;;;;;;;;;;;;;;;;;5014332;28;3541;-60
2024/03/30 15:55:43;;;;;;;;;;;;;;;;;;5026095;28;5100;-64
2024/03/30 15:58:08;;;;;;;;;;;;;;;;;;5013150;28;4944;-65
2024/03/30 16:00:33;;;;;;;;;;;;;;;;;;5013451;28;5051;-65
2024/03/30 16:02:59;;;;;;;;;;;;;;;;;;4990369;28;4574;-65
2024/03/30 16:05:24;;;;;;;;;;;;;;;;;;4993340;28;4085;-69
2024/03/30 16:07:49;;;;;;;;;;;;;;;;;;4991641;28;5111;-65
2024/03/30 16:10:15;;;;;;;;;;;;;;;;;;4993810;28;4553;-73
2024/03/30 16:12:40;;;;;;;;;;;;;;;;;;4994239;28;5285;-72
2024/03/30 16:15:06;;;;;;;;;;;;;;;;;;5000301;28;5097;-66
2024/03/30 16:17:32;;;;;;;;;;;;;;;;;;4999166;28;3688;-61
2024/03/30 16:19:58;;;;;;;;;;;;;;;;;;4993775;28;5149;-64
2024/03/30 16:22:23;;;;;;;;;;;;;;;;;;4990037;28;4668;-68
2024/03/30 16:24:48;;;;;;;;;;;;;;;;;;4992691;28;4521;-66
2024/03/30 16:27:14;;;;;;;;;;;;;;;;;;4998512;28;5123;-65
2024/03/30 16:29:39;;;;;;;;;;;;;;;;;;4988920;28;5018;-68
2024/03/30 16:32:05;;;;;;;;;;;;;;;;;;4992212;28;3709;-69
2024/03/30 16:34:33;;;;;;;;;;;;;;;;;;4991769;28;4602;-67
2024/03/30 16:36:58;;;;;;;;;;;;;;;;;;5007345;28;4528;-67
2024/03/30 16:39:23;;;;;;;;;;;;;;;;;;5017402;28;4765;-67
2024/03/30 16:41:50;;;;;;;;;;;;;;;;;;5000797;28;5251;-61
2024/03/30 16:44:36;;;;;;;;;;;;;;;;;;4997332;28;3671;-63
2024/03/30 16:47:01;;;;;;;;;;;;;;;;;;4995002;28;4525;-65
2024/03/30 16:49:27;;;;;;;;;;;;;;;;;;4995631;28;4866;-64
2024/03/30 16:51:52;;;;;;;;;;;;;;;;;;4993804;28;5110;-67
2024/03/30 16:54:17;;;;;;;;;;;;;;;;;;4993274;28;4521;-66
2024/03/30 16:56:43;;;;;;;;;;;;;;;;;;4995587;28;4684;-64
2024/03/30 16:59:09;;;;;;;;;;;;;;;;;;5027758;28;3554;-68